sensor_id;sensor_type;location;lat;lon;timestamp;P1;durP1;ratioP1;P2;durP2;ratioP2
9156;SDS011;4613;48.392;9.998;2023-02-15T00:01:08;15.88;;;10.02;;
9156;SDS011;4613;48.392;9.998;2023-02-15T00:03:59;16.65;;;9.20;;
9156;SDS011;4613;48.392;9.998;2023-02-15T00:06:48;20.08;;;9.77;;
9156;SDS011;4613;48.392;9.998;2023-02-15T00:09:38;18.67;;;8.60;;
9156;SDS011;4613;48.392;9.998;2023-02-15T00:12:28;14.65;;;9.25;;
9156;SDS011;4613;48.392;9.998;2023-02-15T00:15:18;12.48;;;7.47;;
9156;SDS011;4613;48.392;9.998;2023-02-15T00:18:07;14.07;;;7.72;;
9156;SDS011;4613;48.392;9.998;2023-02-15T00:20:57;18.58;;;9.45;;
9156;SDS011;4613;48.392;9.998;2023-02-15T00:23:47;14.38;;;8.70;;
9156;SDS011;4613;48.392;9.998;2023-02-15T00:26:40;17.33;;;9.57;;
9156;SDS011;4613;48.392;9.998;2023-02-15T00:29:30;20.05;;;9.48;;
9156;SDS011;4613;48.392;9.998;2023-02-15T00:32:20;16.35;;;9.57;;
9156;SDS011;4613;48.392;9.998;2023-02-15T00:35:09;18.83;;;9.90;;
9156;SDS011;4613;48.392;9.998;2023-02-15T00:37:59;18.25;;;8.40;;
9156;SDS011;4613;48.392;9.998;2023-02-15T00:40:55;15.68;;;9.75;;
9156;SDS011;4613;48.392;9.998;2023-02-15T00:43:48;15.65;;;6.93;;
9156;SDS011;4613;48.392;9.998;2023-02-15T00:46:37;14.57;;;7.97;;
9156;SDS011;4613;48.392;9.998;2023-02-15T00:49:27;13.63;;;7.55;;
9156;SDS011;4613;48.392;9.998;2023-02-15T00:52:16;13.32;;;7.10;;
9156;SDS011;4613;48.392;9.998;2023-02-15T00:55:06;14.45;;;7.35;;
9156;SDS011;4613;48.392;9.998;2023-02-15T00:57:56;9.90;;;6.13;;
9156;SDS011;4613;48.392;9.998;2023-02-15T01:00:45;10.63;;;6.25;;
9156;SDS011;4613;48.392;9.998;2023-02-15T01:03:38;10.75;;;5.05;;
9156;SDS011;4613;48.392;9.998;2023-02-15T01:06:31;9.30;;;5.30;;
9156;SDS011;4613;48.392;9.998;2023-02-15T01:09:20;14.32;;;7.38;;
9156;SDS011;4613;48.392;9.998;2023-02-15T01:12:10;12.27;;;5.95;;
9156;SDS011;4613;48.392;9.998;2023-02-15T01:15:00;12.73;;;7.68;;
9156;SDS011;4613;48.392;9.998;2023-02-15T01:17:49;13.55;;;8.00;;
9156;SDS011;4613;48.392;9.998;2023-02-15T01:20:44;16.65;;;8.02;;
9156;SDS011;4613;48.392;9.998;2023-02-15T01:23:33;10.65;;;7.65;;
9156;SDS011;4613;48.392;9.998;2023-02-15T01:26:22;9.40;;;4.97;;
9156;SDS011;4613;48.392;9.998;2023-02-15T01:29:11;12.57;;;6.55;;
9156;SDS011;4613;48.392;9.998;2023-02-15T01:32:01;8.40;;;4.88;;
9156;SDS011;4613;48.392;9.998;2023-02-15T01:34:50;13.27;;;5.13;;
9156;SDS011;4613;48.392;9.998;2023-02-15T01:37:39;11.05;;;6.68;;
9156;SDS011;4613;48.392;9.998;2023-02-15T01:40:29;12.10;;;6.93;;
9156;SDS011;4613;48.392;9.998;2023-02-15T01:43:18;10.90;;;7.55;;
9156;SDS011;4613;48.392;9.998;2023-02-15T01:46:08;12.00;;;7.03;;
9156;SDS011;4613;48.392;9.998;2023-02-15T01:49:01;12.85;;;6.57;;
9156;SDS011;4613;48.392;9.998;2023-02-15T01:51:57;12.15;;;7.15;;
9156;SDS011;4613;48.392;9.998;2023-02-15T01:54:47;13.70;;;6.55;;
9156;SDS011;4613;48.392;9.998;2023-02-15T01:57:37;12.23;;;5.47;;
9156;SDS011;4613;48.392;9.998;2023-02-15T02:00:27;11.30;;;6.40;;
9156;SDS011;4613;48.392;9.998;2023-02-15T02:03:18;9.02;;;6.18;;
9156;SDS011;4613;48.392;9.998;2023-02-15T02:06:17;11.75;;;7.43;;
9156;SDS011;4613;48.392;9.998;2023-02-15T02:09:08;12.88;;;7.63;;
9156;SDS011;4613;48.392;9.998;2023-02-15T02:11:57;14.32;;;7.82;;
9156;SDS011;4613;48.392;9.998;2023-02-15T02:14:47;11.38;;;7.38;;
9156;SDS011;4613;48.392;9.998;2023-02-15T02:17:53;17.50;;;7.75;;
9156;SDS011;4613;48.392;9.998;2023-02-15T02:24:45;5.53;;;4.30;;
9156;SDS011;4613;48.392;9.998;2023-02-15T02:37:46;11.38;;;5.88;;
9156;SDS011;4613;48.392;9.998;2023-02-15T02:41:00;13.40;;;6.43;;
9156;SDS011;4613;48.392;9.998;2023-02-15T02:44:13;7.40;;;5.25;;
9156;SDS011;4613;48.392;9.998;2023-02-15T02:50:24;11.10;;;6.15;;
9156;SDS011;4613;48.392;9.998;2023-02-15T02:53:16;11.88;;;6.50;;
9156;SDS011;4613;48.392;9.998;2023-02-15T02:56:18;7.63;;;4.50;;
9156;SDS011;4613;48.392;9.998;2023-02-15T02:59:16;7.97;;;5.22;;
9156;SDS011;4613;48.392;9.998;2023-02-15T03:02:17;7.75;;;4.82;;
9156;SDS011;4613;48.392;9.998;2023-02-15T03:05:14;8.57;;;4.85;;
9156;SDS011;4613;48.392;9.998;2023-02-15T03:08:07;6.93;;;5.22;;
9156;SDS011;4613;48.392;9.998;2023-02-15T03:10:59;10.45;;;5.35;;
9156;SDS011;4613;48.392;9.998;2023-02-15T03:13:53;8.30;;;5.82;;
9156;SDS011;4613;48.392;9.998;2023-02-15T03:16:43;7.47;;;5.22;;
9156;SDS011;4613;48.392;9.998;2023-02-15T03:19:36;8.85;;;4.63;;
9156;SDS011;4613;48.392;9.998;2023-02-15T03:22:31;14.00;;;5.93;;
9156;SDS011;4613;48.392;9.998;2023-02-15T03:25:31;12.27;;;6.47;;
9156;SDS011;4613;48.392;9.998;2023-02-15T03:28:33;12.88;;;6.32;;
9156;SDS011;4613;48.392;9.998;2023-02-15T03:31:35;13.55;;;7.53;;
9156;SDS011;4613;48.392;9.998;2023-02-15T03:34:29;10.73;;;7.00;;
9156;SDS011;4613;48.392;9.998;2023-02-15T03:37:22;8.52;;;5.68;;
9156;SDS011;4613;48.392;9.998;2023-02-15T03:40:18;6.93;;;4.35;;
9156;SDS011;4613;48.392;9.998;2023-02-15T03:43:43;5.85;;;4.32;;
9156;SDS011;4613;48.392;9.998;2023-02-15T03:46:42;7.38;;;4.20;;
9156;SDS011;4613;48.392;9.998;2023-02-15T03:49:43;9.10;;;3.80;;
9156;SDS011;4613;48.392;9.998;2023-02-15T03:52:40;8.30;;;4.00;;
9156;SDS011;4613;48.392;9.998;2023-02-15T03:55:30;4.20;;;3.67;;
9156;SDS011;4613;48.392;9.998;2023-02-15T03:58:19;5.68;;;3.42;;
9156;SDS011;4613;48.392;9.998;2023-02-15T04:04:51;4.63;;;3.35;;
9156;SDS011;4613;48.392;9.998;2023-02-15T04:07:40;5.10;;;2.72;;
9156;SDS011;4613;48.392;9.998;2023-02-15T04:10:29;4.68;;;3.42;;
9156;SDS011;4613;48.392;9.998;2023-02-15T04:13:37;3.72;;;2.70;;
9156;SDS011;4613;48.392;9.998;2023-02-15T04:16:28;3.10;;;2.70;;
9156;SDS011;4613;48.392;9.998;2023-02-15T04:19:17;3.58;;;2.92;;
9156;SDS011;4613;48.392;9.998;2023-02-15T04:22:25;5.00;;;2.90;;
9156;SDS011;4613;48.392;9.998;2023-02-15T04:25:33;3.33;;;2.80;;
9156;SDS011;4613;48.392;9.998;2023-02-15T04:28:26;3.72;;;2.75;;
9156;SDS011;4613;48.392;9.998;2023-02-15T04:31:17;4.65;;;2.75;;
9156;SDS011;4613;48.392;9.998;2023-02-15T04:34:07;3.38;;;2.97;;
9156;SDS011;4613;48.392;9.998;2023-02-15T04:36:56;4.75;;;2.83;;
9156;SDS011;4613;48.392;9.998;2023-02-15T04:39:45;3.92;;;2.95;;
9156;SDS011;4613;48.392;9.998;2023-02-15T04:42:34;3.80;;;2.83;;
9156;SDS011;4613;48.392;9.998;2023-02-15T04:45:23;3.47;;;2.70;;
9156;SDS011;4613;48.392;9.998;2023-02-15T04:48:13;4.20;;;2.67;;
9156;SDS011;4613;48.392;9.998;2023-02-15T04:51:05;3.10;;;2.55;;
9156;SDS011;4613;48.392;9.998;2023-02-15T04:53:56;4.25;;;2.60;;
9156;SDS011;4613;48.392;9.998;2023-02-15T04:56:45;4.55;;;2.97;;
9156;SDS011;4613;48.392;9.998;2023-02-15T04:59:34;3.53;;;3.08;;
9156;SDS011;4613;48.392;9.998;2023-02-15T05:02:23;3.35;;;2.80;;
9156;SDS011;4613;48.392;9.998;2023-02-15T05:05:13;2.72;;;2.47;;
9156;SDS011;4613;48.392;9.998;2023-02-15T05:08:04;6.00;;;3.38;;
9156;SDS011;4613;48.392;9.998;2023-02-15T05:10:53;3.17;;;2.70;;
9156;SDS011;4613;48.392;9.998;2023-02-15T05:13:43;6.10;;;2.85;;
9156;SDS011;4613;48.392;9.998;2023-02-15T05:16:37;3.95;;;2.85;;
9156;SDS011;4613;48.392;9.998;2023-02-15T05:19:27;4.20;;;3.05;;
9156;SDS011;4613;48.392;9.998;2023-02-15T05:22:16;3.90;;;3.08;;
9156;SDS011;4613;48.392;9.998;2023-02-15T05:25:06;3.20;;;2.90;;
9156;SDS011;4613;48.392;9.998;2023-02-15T05:28:15;4.03;;;3.00;;
9156;SDS011;4613;48.392;9.998;2023-02-15T05:31:14;11.32;;;3.22;;
9156;SDS011;4613;48.392;9.998;2023-02-15T05:34:06;4.57;;;2.25;;
9156;SDS011;4613;48.392;9.998;2023-02-15T05:36:56;3.03;;;2.72;;
9156;SDS011;4613;48.392;9.998;2023-02-15T05:39:45;3.92;;;3.05;;
9156;SDS011;4613;48.392;9.998;2023-02-15T05:42:34;4.90;;;3.05;;
9156;SDS011;4613;48.392;9.998;2023-02-15T05:45:24;4.38;;;2.95;;
9156;SDS011;4613;48.392;9.998;2023-02-15T05:48:14;3.45;;;3.15;;
9156;SDS011;4613;48.392;9.998;2023-02-15T05:51:08;3.38;;;2.65;;
9156;SDS011;4613;48.392;9.998;2023-02-15T05:54:01;4.75;;;3.10;;
9156;SDS011;4613;48.392;9.998;2023-02-15T05:56:51;3.67;;;2.95;;
9156;SDS011;4613;48.392;9.998;2023-02-15T05:59:41;3.75;;;2.65;;
9156;SDS011;4613;48.392;9.998;2023-02-15T06:02:34;4.03;;;2.88;;
9156;SDS011;4613;48.392;9.998;2023-02-15T06:05:24;3.40;;;2.72;;
9156;SDS011;4613;48.392;9.998;2023-02-15T06:08:14;3.10;;;2.38;;
9156;SDS011;4613;48.392;9.998;2023-02-15T06:11:04;4.40;;;2.90;;
9156;SDS011;4613;48.392;9.998;2023-02-15T06:13:56;2.40;;;2.10;;
9156;SDS011;4613;48.392;9.998;2023-02-15T06:16:46;2.55;;;1.83;;
9156;SDS011;4613;48.392;9.998;2023-02-15T06:19:35;3.25;;;2.90;;
9156;SDS011;4613;48.392;9.998;2023-02-15T06:22:26;3.20;;;2.38;;
9156;SDS011;4613;48.392;9.998;2023-02-15T06:25:15;5.82;;;3.03;;
9156;SDS011;4613;48.392;9.998;2023-02-15T06:28:06;2.88;;;2.50;;
9156;SDS011;4613;48.392;9.998;2023-02-15T06:30:55;5.18;;;2.33;;
9156;SDS011;4613;48.392;9.998;2023-02-15T06:33:46;4.38;;;2.95;;
9156;SDS011;4613;48.392;9.998;2023-02-15T06:36:37;4.75;;;2.58;;
9156;SDS011;4613;48.392;9.998;2023-02-15T06:42:34;2.78;;;2.35;;
9156;SDS011;4613;48.392;9.998;2023-02-15T06:45:24;2.83;;;2.47;;
9156;SDS011;4613;48.392;9.998;2023-02-15T06:48:13;2.30;;;2.13;;
9156;SDS011;4613;48.392;9.998;2023-02-15T06:51:03;4.07;;;2.42;;
9156;SDS011;4613;48.392;9.998;2023-02-15T06:53:52;2.97;;;2.72;;
9156;SDS011;4613;48.392;9.998;2023-02-15T06:56:42;4.80;;;2.95;;
9156;SDS011;4613;48.392;9.998;2023-02-15T06:59:32;3.75;;;2.83;;
9156;SDS011;4613;48.392;9.998;2023-02-15T07:02:21;3.22;;;2.80;;
9156;SDS011;4613;48.392;9.998;2023-02-15T07:05:11;3.13;;;2.83;;
9156;SDS011;4613;48.392;9.998;2023-02-15T07:08:00;5.57;;;3.60;;
9156;SDS011;4613;48.392;9.998;2023-02-15T07:10:50;7.32;;;3.03;;
9156;SDS011;4613;48.392;9.998;2023-02-15T07:13:40;8.15;;;2.80;;
9156;SDS011;4613;48.392;9.998;2023-02-15T07:16:31;5.30;;;4.05;;
9156;SDS011;4613;48.392;9.998;2023-02-15T07:19:25;9.45;;;4.00;;
9156;SDS011;4613;48.392;9.998;2023-02-15T07:22:17;7.13;;;4.63;;
9156;SDS011;4613;48.392;9.998;2023-02-15T07:25:07;5.85;;;4.03;;
9156;SDS011;4613;48.392;9.998;2023-02-15T07:27:58;6.43;;;4.38;;
9156;SDS011;4613;48.392;9.998;2023-02-15T07:30:50;9.10;;;4.90;;
9156;SDS011;4613;48.392;9.998;2023-02-15T07:33:40;6.97;;;5.30;;
9156;SDS011;4613;48.392;9.998;2023-02-15T07:36:31;4.75;;;3.70;;
9156;SDS011;4613;48.392;9.998;2023-02-15T07:39:21;4.82;;;4.05;;
9156;SDS011;4613;48.392;9.998;2023-02-15T07:42:12;5.78;;;3.65;;
9156;SDS011;4613;48.392;9.998;2023-02-15T07:45:01;9.27;;;4.72;;
9156;SDS011;4613;48.392;9.998;2023-02-15T07:47:51;6.80;;;4.43;;
9156;SDS011;4613;48.392;9.998;2023-02-15T07:50:40;5.57;;;3.67;;
9156;SDS011;4613;48.392;9.998;2023-02-15T07:53:30;5.90;;;4.18;;
9156;SDS011;4613;48.392;9.998;2023-02-15T07:56:20;6.68;;;4.05;;
9156;SDS011;4613;48.392;9.998;2023-02-15T07:59:09;4.28;;;3.72;;
9156;SDS011;4613;48.392;9.998;2023-02-15T08:01:59;4.90;;;3.28;;
9156;SDS011;4613;48.392;9.998;2023-02-15T08:04:49;5.95;;;3.47;;
9156;SDS011;4613;48.392;9.998;2023-02-15T08:07:39;5.63;;;3.55;;
9156;SDS011;4613;48.392;9.998;2023-02-15T08:10:30;6.45;;;3.42;;
9156;SDS011;4613;48.392;9.998;2023-02-15T08:13:38;6.32;;;3.13;;
9156;SDS011;4613;48.392;9.998;2023-02-15T08:16:43;7.95;;;3.80;;
9156;SDS011;4613;48.392;9.998;2023-02-15T08:19:38;5.03;;;3.80;;
9156;SDS011;4613;48.392;9.998;2023-02-15T08:22:30;5.60;;;4.20;;
9156;SDS011;4613;48.392;9.998;2023-02-15T08:25:21;4.30;;;3.22;;
9156;SDS011;4613;48.392;9.998;2023-02-15T08:28:10;4.07;;;3.42;;
9156;SDS011;4613;48.392;9.998;2023-02-15T08:31:05;4.88;;;3.80;;
9156;SDS011;4613;48.392;9.998;2023-02-15T08:33:59;4.57;;;3.13;;
9156;SDS011;4613;48.392;9.998;2023-02-15T08:36:49;4.43;;;3.15;;
9156;SDS011;4613;48.392;9.998;2023-02-15T08:39:39;3.15;;;2.50;;
9156;SDS011;4613;48.392;9.998;2023-02-15T08:42:28;5.43;;;3.28;;
9156;SDS011;4613;48.392;9.998;2023-02-15T08:45:17;4.13;;;3.17;;
9156;SDS011;4613;48.392;9.998;2023-02-15T08:48:06;4.63;;;3.35;;
9156;SDS011;4613;48.392;9.998;2023-02-15T08:50:56;2.85;;;2.63;;
9156;SDS011;4613;48.392;9.998;2023-02-15T08:53:46;3.83;;;3.03;;
9156;SDS011;4613;48.392;9.998;2023-02-15T08:56:39;4.70;;;3.13;;
9156;SDS011;4613;48.392;9.998;2023-02-15T08:59:29;6.55;;;3.38;;
9156;SDS011;4613;48.392;9.998;2023-02-15T09:02:19;5.15;;;3.13;;
9156;SDS011;4613;48.392;9.998;2023-02-15T09:05:08;6.32;;;3.45;;
9156;SDS011;4613;48.392;9.998;2023-02-15T09:07:57;5.32;;;3.33;;
9156;SDS011;4613;48.392;9.998;2023-02-15T09:10:46;7.78;;;4.30;;
9156;SDS011;4613;48.392;9.998;2023-02-15T09:13:36;5.22;;;3.50;;
9156;SDS011;4613;48.392;9.998;2023-02-15T09:16:28;6.95;;;4.32;;
9156;SDS011;4613;48.392;9.998;2023-02-15T09:19:24;6.10;;;3.95;;
9156;SDS011;4613;48.392;9.998;2023-02-15T09:22:13;5.93;;;3.92;;
9156;SDS011;4613;48.392;9.998;2023-02-15T09:25:03;4.07;;;3.63;;
9156;SDS011;4613;48.392;9.998;2023-02-15T09:27:53;5.78;;;4.20;;
9156;SDS011;4613;48.392;9.998;2023-02-15T09:33:29;7.05;;;4.40;;
9156;SDS011;4613;48.392;9.998;2023-02-15T09:39:29;8.45;;;4.40;;
9156;SDS011;4613;48.392;9.998;2023-02-15T09:52:30;6.07;;;3.95;;
9156;SDS011;4613;48.392;9.998;2023-02-15T09:58:30;5.15;;;3.88;;
9156;SDS011;4613;48.392;9.998;2023-02-15T10:07:11;4.32;;;3.38;;
9156;SDS011;4613;48.392;9.998;2023-02-15T10:10:25;5.47;;;3.95;;
9156;SDS011;4613;48.392;9.998;2023-02-15T10:13:43;5.45;;;3.72;;
9156;SDS011;4613;48.392;9.998;2023-02-15T10:17:00;6.30;;;4.30;;
9156;SDS011;4613;48.392;9.998;2023-02-15T10:20:13;6.95;;;4.22;;
9156;SDS011;4613;48.392;9.998;2023-02-15T10:29:38;4.07;;;3.53;;
9156;SDS011;4613;48.392;9.998;2023-02-15T10:32:36;5.95;;;4.40;;
9156;SDS011;4613;48.392;9.998;2023-02-15T10:45:15;7.03;;;4.28;;
9156;SDS011;4613;48.392;9.998;2023-02-15T10:52:01;7.55;;;4.20;;
9156;SDS011;4613;48.392;9.998;2023-02-15T10:55:19;6.93;;;4.43;;
9156;SDS011;4613;48.392;9.998;2023-02-15T11:01:41;6.30;;;4.57;;
9156;SDS011;4613;48.392;9.998;2023-02-15T11:05:07;6.40;;;4.60;;
9156;SDS011;4613;48.392;9.998;2023-02-15T11:08:20;5.82;;;4.22;;
9156;SDS011;4613;48.392;9.998;2023-02-15T11:11:14;6.15;;;4.30;;
9156;SDS011;4613;48.392;9.998;2023-02-15T11:14:15;8.43;;;5.35;;
9156;SDS011;4613;48.392;9.998;2023-02-15T11:17:37;6.60;;;4.63;;
9156;SDS011;4613;48.392;9.998;2023-02-15T11:20:35;8.63;;;4.95;;
9156;SDS011;4613;48.392;9.998;2023-02-15T11:23:31;8.50;;;5.43;;
9156;SDS011;4613;48.392;9.998;2023-02-15T11:26:32;9.50;;;5.95;;
9156;SDS011;4613;48.392;9.998;2023-02-15T11:29:36;9.32;;;5.10;;
9156;SDS011;4613;48.392;9.998;2023-02-15T11:32:31;7.22;;;4.95;;
9156;SDS011;4613;48.392;9.998;2023-02-15T11:35:31;6.75;;;4.45;;
9156;SDS011;4613;48.392;9.998;2023-02-15T11:38:28;6.88;;;4.75;;
9156;SDS011;4613;48.392;9.998;2023-02-15T11:41:22;9.75;;;5.65;;
9156;SDS011;4613;48.392;9.998;2023-02-15T11:44:28;7.90;;;5.10;;
9156;SDS011;4613;48.392;9.998;2023-02-15T11:47:23;10.00;;;5.63;;
9156;SDS011;4613;48.392;9.998;2023-02-15T11:50:14;10.93;;;6.85;;
9156;SDS011;4613;48.392;9.998;2023-02-15T11:53:13;9.68;;;6.55;;
9156;SDS011;4613;48.392;9.998;2023-02-15T11:56:10;12.02;;;6.53;;
9156;SDS011;4613;48.392;9.998;2023-02-15T11:59:24;9.13;;;5.70;;
9156;SDS011;4613;48.392;9.998;2023-02-15T12:02:20;14.07;;;7.10;;
9156;SDS011;4613;48.392;9.998;2023-02-15T12:05:18;10.82;;;6.72;;
9156;SDS011;4613;48.392;9.998;2023-02-15T12:11:37;9.88;;;6.55;;
9156;SDS011;4613;48.392;9.998;2023-02-15T12:14:32;12.38;;;7.35;;
9156;SDS011;4613;48.392;9.998;2023-02-15T12:17:52;12.57;;;6.38;;
9156;SDS011;4613;48.392;9.998;2023-02-15T12:20:43;10.77;;;7.28;;
9156;SDS011;4613;48.392;9.998;2023-02-15T12:23:33;11.45;;;6.35;;
9156;SDS011;4613;48.392;9.998;2023-02-15T12:26:31;9.98;;;6.43;;
9156;SDS011;4613;48.392;9.998;2023-02-15T12:29:26;9.35;;;6.00;;
9156;SDS011;4613;48.392;9.998;2023-02-15T12:32:31;10.10;;;7.32;;
9156;SDS011;4613;48.392;9.998;2023-02-15T12:41:25;11.90;;;6.37;;
9156;SDS011;4613;48.392;9.998;2023-02-15T12:44:16;13.27;;;6.93;;
9156;SDS011;4613;48.392;9.998;2023-02-15T12:53:19;12.67;;;7.03;;
9156;SDS011;4613;48.392;9.998;2023-02-15T12:56:12;11.07;;;6.83;;
9156;SDS011;4613;48.392;9.998;2023-02-15T12:59:15;10.20;;;6.43;;
9156;SDS011;4613;48.392;9.998;2023-02-15T13:02:12;11.70;;;6.83;;
9156;SDS011;4613;48.392;9.998;2023-02-15T13:05:14;11.77;;;7.23;;
9156;SDS011;4613;48.392;9.998;2023-02-15T13:08:29;14.03;;;7.93;;
9156;SDS011;4613;48.392;9.998;2023-02-15T13:11:25;13.53;;;7.23;;
9156;SDS011;4613;48.392;9.998;2023-02-15T13:14:31;11.13;;;6.70;;
9156;SDS011;4613;48.392;9.998;2023-02-15T13:17:23;11.77;;;6.93;;
9156;SDS011;4613;48.392;9.998;2023-02-15T13:20:20;11.67;;;6.90;;
9156;SDS011;4613;48.392;9.998;2023-02-15T13:23:47;13.80;;;7.33;;
9156;SDS011;4613;48.392;9.998;2023-02-15T13:29:49;10.30;;;6.80;;
9156;SDS011;4613;48.392;9.998;2023-02-15T13:32:48;13.97;;;7.80;;
9156;SDS011;4613;48.392;9.998;2023-02-15T13:35:46;12.53;;;7.63;;
9156;SDS011;4613;48.392;9.998;2023-02-15T13:39:11;11.80;;;7.30;;
9156;SDS011;4613;48.392;9.998;2023-02-15T13:45:30;12.30;;;7.30;;
9156;SDS011;4613;48.392;9.998;2023-02-15T14:01:28;12.53;;;7.13;;
9156;SDS011;4613;48.392;9.998;2023-02-15T14:04:31;11.57;;;6.87;;
9156;SDS011;4613;48.392;9.998;2023-02-15T14:14:31;12.93;;;7.67;;
9156;SDS011;4613;48.392;9.998;2023-02-15T14:17:38;13.47;;;7.63;;
9156;SDS011;4613;48.392;9.998;2023-02-15T14:30:00;12.00;;;7.33;;
9156;SDS011;4613;48.392;9.998;2023-02-15T14:33:01;14.87;;;9.00;;
9156;SDS011;4613;48.392;9.998;2023-02-15T14:35:58;12.80;;;8.03;;
9156;SDS011;4613;48.392;9.998;2023-02-15T14:42:38;11.63;;;6.87;;
9156;SDS011;4613;48.392;9.998;2023-02-15T14:45:47;11.53;;;7.10;;
9156;SDS011;4613;48.392;9.998;2023-02-15T14:48:38;12.40;;;7.60;;
9156;SDS011;4613;48.392;9.998;2023-02-15T14:52:06;11.70;;;7.70;;
9156;SDS011;4613;48.392;9.998;2023-02-15T14:54:57;11.17;;;7.43;;
9156;SDS011;4613;48.392;9.998;2023-02-15T14:57:57;14.43;;;8.20;;
9156;SDS011;4613;48.392;9.998;2023-02-15T15:00:47;11.83;;;7.73;;
9156;SDS011;4613;48.392;9.998;2023-02-15T15:03:36;15.67;;;8.30;;
9156;SDS011;4613;48.392;9.998;2023-02-15T15:06:39;16.07;;;8.43;;
9156;SDS011;4613;48.392;9.998;2023-02-15T15:09:34;14.40;;;8.10;;
9156;SDS011;4613;48.392;9.998;2023-02-15T15:30:47;11.80;;;7.67;;
9156;SDS011;4613;48.392;9.998;2023-02-15T15:49:33;20.77;;;12.37;;
9156;SDS011;4613;48.392;9.998;2023-02-15T15:52:26;21.53;;;12.27;;
9156;SDS011;4613;48.392;9.998;2023-02-15T15:55:30;19.13;;;11.07;;
9156;SDS011;4613;48.392;9.998;2023-02-15T15:58:22;18.83;;;10.70;;
9156;SDS011;4613;48.392;9.998;2023-02-15T16:01:13;13.17;;;8.63;;
9156;SDS011;4613;48.392;9.998;2023-02-15T16:04:05;13.73;;;7.53;;
9156;SDS011;4613;48.392;9.998;2023-02-15T16:06:54;17.53;;;8.23;;
9156;SDS011;4613;48.392;9.998;2023-02-15T16:12:50;13.27;;;8.03;;
9156;SDS011;4613;48.392;9.998;2023-02-15T16:15:44;12.60;;;7.43;;
9156;SDS011;4613;48.392;9.998;2023-02-15T16:18:38;15.63;;;7.43;;
9156;SDS011;4613;48.392;9.998;2023-02-15T16:21:35;15.63;;;8.00;;
9156;SDS011;4613;48.392;9.998;2023-02-15T16:27:42;12.32;;;8.18;;
9156;SDS011;4613;48.392;9.998;2023-02-15T16:30:33;14.67;;;8.60;;
9156;SDS011;4613;48.392;9.998;2023-02-15T16:33:33;13.03;;;7.63;;
9156;SDS011;4613;48.392;9.998;2023-02-15T16:36:28;12.77;;;7.77;;
9156;SDS011;4613;48.392;9.998;2023-02-15T16:39:18;12.50;;;7.60;;
9156;SDS011;4613;48.392;9.998;2023-02-15T16:42:09;14.90;;;8.02;;
9156;SDS011;4613;48.392;9.998;2023-02-15T16:48:16;12.23;;;7.65;;
9156;SDS011;4613;48.392;9.998;2023-02-15T16:51:08;12.93;;;7.38;;
9156;SDS011;4613;48.392;9.998;2023-02-15T16:54:04;11.40;;;6.70;;
9156;SDS011;4613;48.392;9.998;2023-02-15T16:56:56;18.85;;;8.25;;
9156;SDS011;4613;48.392;9.998;2023-02-15T16:59:47;12.18;;;7.88;;
9156;SDS011;4613;48.392;9.998;2023-02-15T17:02:38;12.88;;;7.55;;
9156;SDS011;4613;48.392;9.998;2023-02-15T17:05:31;13.60;;;8.15;;
9156;SDS011;4613;48.392;9.998;2023-02-15T17:08:41;14.15;;;8.25;;
9156;SDS011;4613;48.392;9.998;2023-02-15T17:11:36;13.60;;;7.93;;
9156;SDS011;4613;48.392;9.998;2023-02-15T17:14:31;17.98;;;9.45;;
9156;SDS011;4613;48.392;9.998;2023-02-15T17:17:20;13.38;;;8.00;;
9156;SDS011;4613;48.392;9.998;2023-02-15T17:20:13;13.57;;;8.30;;
9156;SDS011;4613;48.392;9.998;2023-02-15T17:23:04;14.50;;;8.30;;
9156;SDS011;4613;48.392;9.998;2023-02-15T17:25:54;13.50;;;7.78;;
9156;SDS011;4613;48.392;9.998;2023-02-15T17:28:46;13.55;;;8.02;;
9156;SDS011;4613;48.392;9.998;2023-02-15T17:35:20;8.73;;;5.78;;
9156;SDS011;4613;48.392;9.998;2023-02-15T17:38:17;13.75;;;8.05;;
9156;SDS011;4613;48.392;9.998;2023-02-15T17:41:08;14.30;;;8.02;;
9156;SDS011;4613;48.392;9.998;2023-02-15T17:43:57;12.45;;;7.75;;
9156;SDS011;4613;48.392;9.998;2023-02-15T17:46:46;11.68;;;7.32;;
9156;SDS011;4613;48.392;9.998;2023-02-15T17:49:38;12.35;;;7.55;;
9156;SDS011;4613;48.392;9.998;2023-02-15T17:52:27;14.07;;;8.55;;
9156;SDS011;4613;48.392;9.998;2023-02-15T17:55:21;14.25;;;7.60;;
9156;SDS011;4613;48.392;9.998;2023-02-15T17:58:26;12.73;;;6.72;;
9156;SDS011;4613;48.392;9.998;2023-02-15T18:01:19;10.63;;;6.38;;
9156;SDS011;4613;48.392;9.998;2023-02-15T18:04:29;11.63;;;7.22;;
9156;SDS011;4613;48.392;9.998;2023-02-15T18:07:40;11.40;;;7.10;;
9156;SDS011;4613;48.392;9.998;2023-02-15T18:10:51;13.15;;;8.23;;
9156;SDS011;4613;48.392;9.998;2023-02-15T18:14:00;12.02;;;7.85;;
9156;SDS011;4613;48.392;9.998;2023-02-15T18:16:51;12.82;;;7.10;;
9156;SDS011;4613;48.392;9.998;2023-02-15T18:19:41;13.82;;;6.75;;
9156;SDS011;4613;48.392;9.998;2023-02-15T18:22:33;11.48;;;6.80;;
9156;SDS011;4613;48.392;9.998;2023-02-15T18:25:22;10.82;;;6.88;;
9156;SDS011;4613;48.392;9.998;2023-02-15T18:28:13;12.88;;;7.10;;
9156;SDS011;4613;48.392;9.998;2023-02-15T18:31:02;11.15;;;6.57;;
9156;SDS011;4613;48.392;9.998;2023-02-15T18:33:53;13.15;;;6.55;;
9156;SDS011;4613;48.392;9.998;2023-02-15T18:36:47;12.40;;;7.07;;
9156;SDS011;4613;48.392;9.998;2023-02-15T18:39:44;10.35;;;7.03;;
9156;SDS011;4613;48.392;9.998;2023-02-15T18:42:35;12.32;;;7.38;;
9156;SDS011;4613;48.392;9.998;2023-02-15T18:45:25;13.88;;;7.40;;
9156;SDS011;4613;48.392;9.998;2023-02-15T18:48:20;11.45;;;6.93;;
9156;SDS011;4613;48.392;9.998;2023-02-15T18:51:15;12.50;;;7.78;;
9156;SDS011;4613;48.392;9.998;2023-02-15T18:54:15;12.50;;;7.30;;
9156;SDS011;4613;48.392;9.998;2023-02-15T18:57:09;12.45;;;8.00;;
9156;SDS011;4613;48.392;9.998;2023-02-15T19:00:02;12.13;;;7.18;;
9156;SDS011;4613;48.392;9.998;2023-02-15T19:02:54;12.20;;;7.10;;
9156;SDS011;4613;48.392;9.998;2023-02-15T19:05:45;10.00;;;6.07;;
9156;SDS011;4613;48.392;9.998;2023-02-15T19:08:35;8.88;;;6.13;;
9156;SDS011;4613;48.392;9.998;2023-02-15T19:11:27;11.07;;;7.05;;
9156;SDS011;4613;48.392;9.998;2023-02-15T19:14:30;10.77;;;6.82;;
9156;SDS011;4613;48.392;9.998;2023-02-15T19:17:21;13.25;;;7.38;;
9156;SDS011;4613;48.392;9.998;2023-02-15T19:20:15;14.60;;;7.78;;
9156;SDS011;4613;48.392;9.998;2023-02-15T19:23:15;12.90;;;7.13;;
9156;SDS011;4613;48.392;9.998;2023-02-15T19:26:14;12.95;;;7.97;;
9156;SDS011;4613;48.392;9.998;2023-02-15T19:29:04;12.82;;;8.10;;
9156;SDS011;4613;48.392;9.998;2023-02-15T19:31:55;11.75;;;7.40;;
9156;SDS011;4613;48.392;9.998;2023-02-15T19:34:45;12.10;;;7.25;;
9156;SDS011;4613;48.392;9.998;2023-02-15T19:37:35;10.77;;;7.60;;
9156;SDS011;4613;48.392;9.998;2023-02-15T19:40:28;12.32;;;6.55;;
9156;SDS011;4613;48.392;9.998;2023-02-15T19:43:25;12.10;;;7.15;;
9156;SDS011;4613;48.392;9.998;2023-02-15T19:46:15;12.07;;;6.75;;
9156;SDS011;4613;48.392;9.998;2023-02-15T19:49:07;15.30;;;7.25;;
9156;SDS011;4613;48.392;9.998;2023-02-15T19:51:57;11.65;;;7.07;;
9156;SDS011;4613;48.392;9.998;2023-02-15T19:54:47;15.32;;;7.30;;
9156;SDS011;4613;48.392;9.998;2023-02-15T19:57:38;12.88;;;7.55;;
9156;SDS011;4613;48.392;9.998;2023-02-15T20:00:29;12.77;;;8.25;;
9156;SDS011;4613;48.392;9.998;2023-02-15T20:03:19;13.48;;;7.28;;
9156;SDS011;4613;48.392;9.998;2023-02-15T20:06:13;10.40;;;6.63;;
9156;SDS011;4613;48.392;9.998;2023-02-15T20:09:03;10.90;;;7.35;;
9156;SDS011;4613;48.392;9.998;2023-02-15T20:11:56;10.43;;;6.78;;
9156;SDS011;4613;48.392;9.998;2023-02-15T20:14:45;10.88;;;6.32;;
9156;SDS011;4613;48.392;9.998;2023-02-15T20:17:35;13.65;;;7.55;;
9156;SDS011;4613;48.392;9.998;2023-02-15T20:20:47;12.25;;;8.10;;
9156;SDS011;4613;48.392;9.998;2023-02-15T20:23:42;9.38;;;6.53;;
9156;SDS011;4613;48.392;9.998;2023-02-15T20:26:33;9.98;;;6.75;;
9156;SDS011;4613;48.392;9.998;2023-02-15T20:29:23;11.05;;;5.90;;
9156;SDS011;4613;48.392;9.998;2023-02-15T20:32:12;9.88;;;6.50;;
9156;SDS011;4613;48.392;9.998;2023-02-15T20:35:02;10.30;;;7.07;;
9156;SDS011;4613;48.392;9.998;2023-02-15T20:37:52;9.77;;;6.82;;
9156;SDS011;4613;48.392;9.998;2023-02-15T20:40:44;13.73;;;7.13;;
9156;SDS011;4613;48.392;9.998;2023-02-15T20:43:57;14.45;;;9.15;;
9156;SDS011;4613;48.392;9.998;2023-02-15T20:46:48;29.98;;;14.32;;
9156;SDS011;4613;48.392;9.998;2023-02-15T20:49:39;27.73;;;13.32;;